Aviation Digital Data Service (ADDS)

Output produced by TAFs form (2014 UTC 18 July 2018)
found at http://www.aviationweather.gov/adds/tafs/
 
KATL 181952Z 31008KT 10SM FEW047TCU SCT150 SCT250 33/21 A2994 RMK AO2 SLP126 TCU S-SW-W-NW T03330211
KATL 181949Z 1820/1924 34006KT P6SM VCSH SCT040 SCT250 
     FM190200 35005KT P6SM BKN050 
     FM190800 04005KT P6SM FEW010 SCT250 
     FM191500 09006KT P6SM SCT030 BKN250 
     FM191800 10008KT P6SM VCSH BKN040